Time,TemperatureF,DewpointF,PressureIn,WindDirection,WindDirectionDegrees,WindSpeedMPH,WindSpeedGustMPH,Humidity,HourlyPrecipIn,Conditions,Clouds,dailyrainin,SoftwareType,DateUTC
2013-10-18 00:22:00,46.0,-99.9,-100.00,NNE,12,3.0,9.0,-999,-99.99,,,-99.99,,2013-10-18 08:22:00,
2013-10-18 00:32:00,46.0,-99.9,-100.00,NNE,12,3.0,9.0,-999,-99.99,,,-99.99,,2013-10-18 08:32:00,
2013-10-18 00:42:00,46.0,-99.9,-100.00,NNE,12,3.0,9.0,-999,-99.99,,,-99.99,,2013-10-18 08:42:00,
2013-10-18 00:52:00,46.0,-99.9,-100.00,NNE,12,3.0,9.0,-999,-99.99,,,-99.99,,2013-10-18 08:52:00,
2013-10-18 02:23:00,45.0,-99.9,-100.00,West,273,0.0,3.0,-999,-99.99,,,-99.99,,2013-10-18 10:23:00,
2013-10-18 02:33:00,45.0,-99.9,-100.00,West,273,0.0,3.0,-999,-99.99,,,-99.99,,2013-10-18 10:33:00,
2013-10-18 02:43:00,45.0,-99.9,-100.00,West,273,0.0,3.0,-999,-99.99,,,-99.99,,2013-10-18 10:43:00,
2013-10-18 02:53:00,45.0,-99.9,-100.00,West,273,0.0,3.0,-999,-99.99,,,-99.99,,2013-10-18 10:53:00,
2013-10-18 04:22:00,44.0,-99.9,-100.00,WNW,289,8.0,8.0,-999,-99.99,,,-99.99,,2013-10-18 12:22:00,
2013-10-18 04:32:00,44.0,-99.9,-100.00,WNW,289,8.0,8.0,-999,-99.99,,,-99.99,,2013-10-18 12:32:00,
2013-10-18 04:42:00,44.0,-99.9,-100.00,WNW,289,8.0,8.0,-999,-99.99,,,-99.99,,2013-10-18 12:42:00,
2013-10-18 04:52:00,44.0,-99.9,-100.00,WNW,289,8.0,8.0,-999,-99.99,,,-99.99,,2013-10-18 12:52:00,
2013-10-18 05:22:00,44.0,-99.9,-100.00,NNW,338,5.0,9.0,-999,-99.99,,,-99.99,,2013-10-18 13:22:00,
2013-10-18 05:32:00,44.0,-99.9,-100.00,NNW,338,5.0,9.0,-999,-99.99,,,-99.99,,2013-10-18 13:32:00,
2013-10-18 05:52:00,44.0,-99.9,-100.00,NNW,338,5.0,9.0,-999,-99.99,,,-99.99,,2013-10-18 13:52:00,
2013-10-18 06:22:00,43.0,-99.9,-100.00,NNW,344,5.0,10.0,-999,-99.99,,,-99.99,,2013-10-18 14:22:00,
2013-10-18 06:32:00,43.0,-99.9,-100.00,NNW,344,5.0,10.0,-999,-99.99,,,-99.99,,2013-10-18 14:32:00,
2013-10-18 06:52:00,43.0,-99.9,-100.00,NNW,344,5.0,10.0,-999,-99.99,,,-99.99,,2013-10-18 14:52:00,
2013-10-18 07:22:00,42.0,-99.9,-100.00,NE,39,0.0,0.0,-999,-99.99,,,-99.99,,2013-10-18 15:22:00,
2013-10-18 07:33:00,42.0,-99.9,-100.00,NE,39,0.0,0.0,-999,-99.99,,,-99.99,,2013-10-18 15:33:00,
2013-10-18 07:54:00,42.0,-99.9,-100.00,NE,39,0.0,0.0,-999,-99.99,,,-99.99,,2013-10-18 15:54:00,
2013-10-18 08:24:00,43.0,-99.9,-100.00,NNE,18,0.0,4.0,-999,-99.99,,,-99.99,,2013-10-18 16:24:00,
2013-10-18 08:33:00,43.0,-99.9,-100.00,NNE,18,0.0,4.0,-999,-99.99,,,-99.99,,2013-10-18 16:33:00,
2013-10-18 08:53:00,43.0,-99.9,-100.00,NNE,18,0.0,4.0,-999,-99.99,,,-99.99,,2013-10-18 16:53:00,
2013-10-18 09:22:00,49.0,-99.9,-100.00,SE,131,9.0,21.0,-999,-99.99,,,-99.99,,2013-10-18 17:22:00,
2013-10-18 09:33:00,49.0,-99.9,-100.00,SE,131,9.0,21.0,-999,-99.99,,,-99.99,,2013-10-18 17:33:00,
2013-10-18 09:42:00,49.0,-99.9,-100.00,SE,131,9.0,21.0,-999,-99.99,,,-99.99,,2013-10-18 17:42:00,
2013-10-18 09:52:00,49.0,-99.9,-100.00,SE,131,9.0,21.0,-999,-99.99,,,-99.99,,2013-10-18 17:52:00,
2013-10-18 12:22:00,54.0,-99.9,-100.00,ESE,118,5.0,16.0,-999,-99.99,,,-99.99,,2013-10-18 20:22:00,
2013-10-18 12:32:00,54.0,-99.9,-100.00,ESE,118,5.0,16.0,-999,-99.99,,,-99.99,,2013-10-18 20:32:00,
2013-10-18 12:42:00,54.0,-99.9,-100.00,ESE,118,5.0,16.0,-999,-99.99,,,-99.99,,2013-10-18 20:42:00,
2013-10-18 12:52:00,54.0,-99.9,-100.00,ESE,118,5.0,16.0,-999,-99.99,,,-99.99,,2013-10-18 20:52:00,
2013-10-18 13:54:00,52.0,-99.9,-100.00,SE,146,9.0,18.0,-999,-99.99,,,-99.99,,2013-10-18 21:54:00,
2013-10-18 14:24:00,52.0,-99.9,-100.00,SE,146,9.0,18.0,-999,-99.99,,,-99.99,,2013-10-18 22:24:00,
2013-10-18 14:33:00,52.0,-99.9,-100.00,SE,146,9.0,18.0,-999,-99.99,,,-99.99,,2013-10-18 22:33:00,
2013-10-18 15:23:00,52.0,-99.9,-100.00,East,84,9.0,21.0,-999,-99.99,,,-99.99,,2013-10-18 23:23:00,
2013-10-18 15:34:00,52.0,-99.9,-100.00,East,84,9.0,21.0,-999,-99.99,,,-99.99,,2013-10-18 23:34:00,
2013-10-18 15:43:00,52.0,-99.9,-100.00,East,84,9.0,21.0,-999,-99.99,,,-99.99,,2013-10-18 23:43:00,
2013-10-18 15:53:00,52.0,-99.9,-100.00,East,84,9.0,21.0,-999,-99.99,,,-99.99,,2013-10-18 23:53:00,
2013-10-18 16:22:00,52.0,-99.9,-100.00,ESE,108,23.0,27.0,-999,-99.99,,,-99.99,,2013-10-19 00:22:00,
2013-10-18 16:32:00,52.0,-99.9,-100.00,ESE,108,23.0,27.0,-999,-99.99,,,-99.99,,2013-10-19 00:32:00,
2013-10-18 16:42:00,52.0,-99.9,-100.00,ESE,108,23.0,27.0,-999,-99.99,,,-99.99,,2013-10-19 00:42:00,
2013-10-18 16:52:00,52.0,-99.9,-100.00,ESE,108,23.0,27.0,-999,-99.99,,,-99.99,,2013-10-19 00:52:00,
2013-10-18 17:22:00,52.0,-99.9,-100.00,SE,129,8.0,26.0,-999,-99.99,,,-99.99,,2013-10-19 01:22:00,
2013-10-18 17:32:00,52.0,-99.9,-100.00,SE,129,8.0,26.0,-999,-99.99,,,-99.99,,2013-10-19 01:32:00,
2013-10-18 17:42:00,52.0,-99.9,-100.00,SE,129,8.0,26.0,-999,-99.99,,,-99.99,,2013-10-19 01:42:00,
2013-10-18 17:53:00,52.0,-99.9,-100.00,SE,129,8.0,26.0,-999,-99.99,,,-99.99,,2013-10-19 01:53:00,
2013-10-18 18:22:00,51.0,-99.9,-100.00,ENE,74,20.0,31.0,-999,-99.99,,,-99.99,,2013-10-19 02:22:00,
2013-10-18 18:32:00,51.0,-99.9,-100.00,ENE,74,20.0,31.0,-999,-99.99,,,-99.99,,2013-10-19 02:32:00,
2013-10-18 18:42:00,51.0,-99.9,-100.00,ENE,74,20.0,31.0,-999,-99.99,,,-99.99,,2013-10-19 02:42:00,
2013-10-18 18:52:00,51.0,-99.9,-100.00,ENE,74,20.0,31.0,-999,-99.99,,,-99.99,,2013-10-19 02:52:00,
2013-10-18 18:54:00,52.0,-99.9,-100.00,East,90,16.0,31.0,-999,-99.99,,,-99.99,,2013-10-19 02:54:00,
2013-10-18 19:23:00,52.0,-99.9,-100.00,East,90,16.0,31.0,-999,-99.99,,,-99.99,,2013-10-19 03:23:00,
2013-10-18 19:34:00,52.0,-99.9,-100.00,East,90,16.0,31.0,-999,-99.99,,,-99.99,,2013-10-19 03:34:00,
2013-10-18 19:45:00,52.0,-99.9,-100.00,East,90,16.0,31.0,-999,-99.99,,,-99.99,,2013-10-19 03:45:00,
2013-10-18 19:54:00,52.0,-99.9,-100.00,SE,128,10.0,34.0,-999,-99.99,,,-99.99,,2013-10-19 03:54:00,
2013-10-18 20:24:00,52.0,-99.9,-100.00,SE,128,10.0,34.0,-999,-99.99,,,-99.99,,2013-10-19 04:24:00,
2013-10-18 20:34:00,52.0,-99.9,-100.00,SE,128,10.0,34.0,-999,-99.99,,,-99.99,,2013-10-19 04:34:00,
2013-10-18 20:44:00,52.0,-99.9,-100.00,SE,128,10.0,34.0,-999,-99.99,,,-99.99,,2013-10-19 04:44:00,